createdAt,value
2018-09-06T00:02:05.872Z,5.53
2018-09-06T00:04:35.577Z,5.80
2018-09-06T00:07:05.240Z,5.73
2018-09-06T00:09:34.902Z,5.57
2018-09-06T00:12:04.607Z,5.67
2018-09-06T00:14:34.261Z,6.20
2018-09-06T00:17:03.973Z,5.80
2018-09-06T00:19:33.681Z,5.77
2018-09-06T00:22:03.401Z,5.70
2018-09-06T00:24:33.062Z,6.00
2018-09-06T00:27:02.740Z,5.87
2018-09-06T00:29:32.453Z,5.80
2018-09-06T00:32:02.132Z,6.00
2018-09-06T00:34:31.781Z,5.63
2018-09-06T00:37:01.498Z,6.00
2018-09-06T00:39:31.161Z,5.87
2018-09-06T00:42:00.861Z,6.10
2018-09-06T00:44:30.572Z,6.33
2018-09-06T00:47:00.236Z,6.10
2018-09-06T00:49:29.935Z,6.10
2018-09-06T00:51:59.647Z,6.97
2018-09-06T00:54:29.512Z,6.43
2018-09-06T00:56:59.300Z,6.27
2018-09-06T00:59:28.942Z,6.33
2018-09-06T01:01:58.619Z,6.77
2018-09-06T01:04:28.288Z,6.47
2018-09-06T01:06:57.920Z,6.70
2018-09-06T01:09:27.604Z,6.60
2018-09-06T01:11:57.253Z,6.40
2018-09-06T01:14:26.936Z,6.80
2018-09-06T01:16:56.596Z,6.70
2018-09-06T01:19:26.304Z,7.00
2018-09-06T01:21:55.968Z,6.40
2018-09-06T01:24:25.624Z,6.50
2018-09-06T01:26:55.318Z,6.50
2018-09-06T01:29:24.976Z,6.50
2018-09-06T01:31:54.688Z,6.47
2018-09-06T01:34:24.342Z,7.03
2018-09-06T01:36:54.085Z,6.77
2018-09-06T01:39:23.738Z,6.90
2018-09-06T01:41:53.469Z,6.87
2018-09-06T01:44:23.344Z,6.97
2018-09-06T01:46:53.008Z,7.43
2018-09-06T01:49:22.656Z,7.60
2018-09-06T01:51:52.376Z,7.10
2018-09-06T01:54:22.020Z,7.63
2018-09-06T01:56:51.697Z,7.57
2018-09-06T01:59:21.452Z,7.67
2018-09-06T02:01:51.084Z,7.73
2018-09-06T02:04:20.873Z,7.33
2018-09-06T02:06:50.605Z,7.70
2018-09-06T02:09:20.260Z,7.87
2018-09-06T02:11:49.996Z,7.90
2018-09-06T02:14:19.741Z,7.97
2018-09-06T02:16:49.558Z,8.20
2018-09-06T02:19:19.300Z,8.00
2018-09-06T02:21:49.057Z,8.50
2018-09-06T02:24:18.771Z,7.37
2018-09-06T02:26:48.784Z,7.90
2018-09-06T02:29:18.436Z,7.70
2018-09-06T02:31:48.120Z,7.80
2018-09-06T02:34:17.756Z,8.07
2018-09-06T02:36:47.456Z,7.50
2018-09-06T02:39:17.109Z,7.87
2018-09-06T02:41:46.912Z,8.93
2018-09-06T02:44:16.557Z,7.37
2018-09-06T02:46:46.325Z,7.53
2018-09-06T02:49:16.092Z,7.50
2018-09-06T02:51:45.735Z,7.83
2018-09-06T02:54:15.442Z,7.93
2018-09-06T02:56:45.110Z,8.20
2018-09-06T02:59:14.792Z,8.00
2018-09-06T03:01:44.436Z,8.50
2018-09-06T03:04:14.136Z,7.67
2018-09-06T03:06:43.796Z,7.93
2018-09-06T03:09:13.467Z,7.83
2018-09-06T03:11:48.423Z,8.73
2018-09-06T03:14:18.160Z,7.70
2018-09-06T03:16:47.852Z,8.47
2018-09-06T03:19:17.572Z,7.93
2018-09-06T03:21:47.295Z,8.03
2018-09-06T03:24:17.201Z,7.83
2018-09-06T03:26:46.883Z,8.80
2018-09-06T03:29:16.532Z,8.60
2018-09-06T03:31:46.224Z,8.80
2018-09-06T03:34:15.984Z,8.13
2018-09-06T03:36:45.729Z,8.63
2018-09-06T03:39:15.418Z,8.70
2018-09-06T03:41:45.112Z,8.30
2018-09-06T03:44:14.776Z,9.20
2018-09-06T03:46:44.539Z,8.83
2018-09-06T03:49:14.260Z,8.07
2018-09-06T03:51:43.916Z,8.93
2018-09-06T03:54:13.585Z,8.80
2018-09-06T03:56:43.261Z,8.47
2018-09-06T03:59:13.017Z,8.07
2018-09-06T04:01:42.677Z,9.50
2018-09-06T04:04:12.321Z,8.50
2018-09-06T04:06:42.004Z,9.33
2018-09-06T04:09:12.128Z,9.33
2018-09-06T04:11:42.688Z,9.70
2018-09-06T04:14:12.351Z,10.07
2018-09-06T04:16:42.049Z,8.83
2018-09-06T04:19:11.719Z,9.63
2018-09-06T04:21:41.520Z,8.93
2018-09-06T04:24:11.254Z,8.90
2018-09-06T04:26:40.923Z,9.30
2018-09-06T04:29:10.588Z,9.23
2018-09-06T04:31:40.284Z,9.33
2018-09-06T04:34:09.977Z,9.43
2018-09-06T04:36:39.714Z,9.83
2018-09-06T04:39:11.199Z,8.53
2018-09-06T04:41:40.872Z,9.50
2018-09-06T04:44:10.645Z,9.53
2018-09-06T04:46:40.395Z,9.63
2018-09-06T04:49:10.057Z,10.40
2018-09-06T04:51:39.733Z,10.63
2018-09-06T04:54:09.429Z,10.77
2018-09-06T04:56:39.122Z,11.17
2018-09-06T04:59:08.808Z,10.40
2018-09-06T05:01:38.596Z,11.10
2018-09-06T05:04:08.555Z,11.33
2018-09-06T05:06:38.288Z,11.47
2018-09-06T05:09:09.867Z,11.70
2018-09-06T05:11:40.698Z,10.47
2018-09-06T05:14:10.550Z,11.17
2018-09-06T05:16:40.260Z,11.77
2018-09-06T05:19:09.924Z,11.03
2018-09-06T05:21:39.600Z,10.87
2018-09-06T05:24:09.487Z,10.63
2018-09-06T05:26:39.175Z,11.00
2018-09-06T05:29:08.893Z,10.63
2018-09-06T05:31:38.592Z,10.87
2018-09-06T05:34:08.300Z,10.70
2018-09-06T05:36:38.003Z,11.63
2018-09-06T05:39:10.906Z,11.27
2018-09-06T05:41:41.170Z,11.97
2018-09-06T05:44:11.538Z,11.90
2018-09-06T05:46:41.797Z,12.13
2018-09-06T05:49:11.518Z,11.60
2018-09-06T05:51:41.183Z,11.60
2018-09-06T05:54:10.891Z,12.20
2018-09-06T05:56:40.636Z,11.87
2018-09-06T05:59:10.307Z,11.50
2018-09-06T06:01:40.005Z,12.40
2018-09-06T06:04:09.680Z,11.20
2018-09-06T06:06:39.380Z,12.53
2018-09-06T06:09:09.687Z,13.07
2018-09-06T06:11:39.443Z,11.30
2018-09-06T06:14:09.158Z,12.23
2018-09-06T06:16:38.901Z,12.53
2018-09-06T06:19:08.580Z,11.67
2018-09-06T06:21:38.323Z,11.13
2018-09-06T06:24:08.031Z,12.20
2018-09-06T06:26:37.699Z,11.63
2018-09-06T06:29:07.760Z,11.20
2018-09-06T06:31:37.420Z,12.23
2018-09-06T06:34:07.282Z,11.37
2018-09-06T06:36:36.934Z,10.63
2018-09-06T06:39:09.486Z,9.73
2018-09-06T06:41:39.847Z,11.57
2018-09-06T06:44:09.846Z,10.83
2018-09-06T06:46:39.559Z,10.90
2018-09-06T06:49:09.230Z,10.77
2018-09-06T06:51:38.941Z,10.10
2018-09-06T06:54:08.694Z,10.87
2018-09-06T06:56:38.436Z,10.83
2018-09-06T06:59:08.132Z,10.60
2018-09-06T07:01:37.808Z,9.80
2018-09-06T07:04:07.581Z,9.97
2018-09-06T07:06:37.245Z,10.40
2018-09-06T07:09:09.356Z,9.90
2018-09-06T07:11:39.040Z,9.90
2018-09-06T07:14:08.708Z,8.67
2018-09-06T07:16:38.400Z,9.50
2018-09-06T07:19:08.067Z,9.37
2018-09-06T07:21:37.819Z,9.57
2018-09-06T07:24:07.501Z,10.03
2018-09-06T07:26:37.228Z,9.73
2018-09-06T07:29:07.012Z,8.60
2018-09-06T07:31:36.718Z,8.80
2018-09-06T07:34:06.471Z,8.90
2018-09-06T07:36:36.165Z,8.33
2018-09-06T07:39:08.540Z,8.70
2018-09-06T07:41:38.200Z,8.73
2018-09-06T07:44:07.996Z,8.23
2018-09-06T07:46:37.699Z,8.53
2018-09-06T07:49:07.443Z,8.07
2018-09-06T07:51:37.136Z,7.17
2018-09-06T07:54:06.816Z,7.40
2018-09-06T07:56:36.528Z,7.63
2018-09-06T07:59:06.248Z,7.20
2018-09-06T08:01:35.934Z,7.97
2018-09-06T08:04:05.753Z,8.13
2018-09-06T08:06:35.432Z,6.77
2018-09-06T08:09:07.168Z,7.43
2018-09-06T08:11:37.049Z,7.30
2018-09-06T08:14:06.764Z,6.93
2018-09-06T08:16:36.789Z,7.30
2018-09-06T08:19:06.468Z,7.60
2018-09-06T08:21:36.173Z,7.30
2018-09-06T08:24:05.855Z,6.83
2018-09-06T08:26:35.564Z,7.00
2018-09-06T08:29:05.268Z,6.97
2018-09-06T08:31:35.071Z,7.47
2018-09-06T08:34:04.763Z,6.93
2018-09-06T08:36:34.470Z,7.30
2018-09-06T08:39:05.438Z,7.17
2018-09-06T08:41:35.117Z,6.73
2018-09-06T08:44:04.768Z,6.77
2018-09-06T08:46:34.531Z,6.50
2018-09-06T08:49:04.232Z,7.00
2018-09-06T08:51:34.133Z,6.93
2018-09-06T08:54:03.832Z,7.07
2018-09-06T08:56:33.541Z,6.73
2018-09-06T08:59:03.297Z,6.77
2018-09-06T09:01:39.920Z,7.00
2018-09-06T09:04:10.041Z,6.83
2018-09-06T09:06:40.092Z,6.80
2018-09-06T09:09:13.144Z,6.77
2018-09-06T09:11:42.905Z,7.27
2018-09-06T09:14:12.610Z,7.33
2018-09-06T09:16:42.484Z,7.23
2018-09-06T09:19:12.145Z,6.78
2018-09-06T09:21:41.928Z,6.80
2018-09-06T09:24:11.503Z,6.50
2018-09-06T09:26:41.257Z,6.70
2018-09-06T09:29:10.948Z,7.60
2018-09-06T09:31:40.668Z,6.97
2018-09-06T09:34:10.387Z,6.67
2018-09-06T09:36:40.072Z,7.22
2018-09-06T09:39:10.518Z,6.58
2018-09-06T09:41:40.256Z,6.78
2018-09-06T09:44:09.964Z,6.87
2018-09-06T09:49:08.401Z,6.87
2018-09-06T09:51:38.180Z,5.87
2018-09-06T09:54:08.063Z,6.70
2018-09-06T09:56:37.745Z,6.70
2018-09-06T09:59:07.488Z,6.70
2018-09-06T10:01:43.860Z,6.72
2018-09-06T10:04:18.649Z,6.53
2018-09-06T10:06:53.424Z,6.80
2018-09-06T10:09:24.964Z,6.50
2018-09-06T10:11:54.688Z,5.95
2018-09-06T10:14:24.407Z,6.58
2018-09-06T10:16:54.075Z,6.55
2018-09-06T10:19:23.852Z,6.20
2018-09-06T10:21:53.516Z,6.30
2018-09-06T10:24:23.239Z,6.83
2018-09-06T10:26:53.069Z,6.70
2018-09-06T10:29:22.782Z,6.17
2018-09-06T10:31:52.488Z,6.10
2018-09-06T10:34:22.250Z,6.47
2018-09-06T10:36:51.992Z,6.35
2018-09-06T10:39:21.854Z,6.60
2018-09-06T10:41:51.502Z,6.67
2018-09-06T10:44:21.208Z,6.40
2018-09-06T10:46:50.872Z,6.40
2018-09-06T10:49:20.573Z,6.25
2018-09-06T10:51:50.256Z,6.40
2018-09-06T10:54:19.945Z,6.83
2018-09-06T10:56:49.620Z,6.12
2018-09-06T10:59:19.360Z,6.50
2018-09-06T11:01:49.088Z,6.33
2018-09-06T11:04:18.901Z,6.22
2018-09-06T11:06:48.636Z,6.28
2018-09-06T11:09:18.408Z,6.12
2018-09-06T11:11:48.093Z,6.60
2018-09-06T11:14:17.768Z,6.15
2018-09-06T11:16:47.508Z,6.60
2018-09-06T11:19:17.260Z,5.87
2018-09-06T11:21:47.100Z,5.50
2018-09-06T11:24:16.625Z,6.10
2018-09-06T11:26:46.272Z,6.20
2018-09-06T11:29:15.941Z,6.10
2018-09-06T11:31:45.625Z,6.05
2018-09-06T11:34:15.384Z,5.80
2018-09-06T11:36:45.052Z,6.10
2018-09-06T11:39:14.800Z,5.80
2018-09-06T11:41:44.560Z,5.87
2018-09-06T11:44:14.332Z,6.35
2018-09-06T11:46:44.073Z,5.85
2018-09-06T11:49:13.773Z,6.97
2018-09-06T11:51:43.533Z,6.33
2018-09-06T11:54:13.228Z,6.50
2018-09-06T11:56:42.904Z,6.50
2018-09-06T11:59:12.652Z,6.50
2018-09-06T12:01:42.376Z,5.95
2018-09-06T12:04:12.192Z,6.15
2018-09-06T12:06:41.904Z,5.78
2018-09-06T12:09:11.661Z,6.10
2018-09-06T12:11:41.346Z,5.90
2018-09-06T12:14:11.064Z,5.72
2018-09-06T12:16:40.716Z,6.20
2018-09-06T12:19:10.434Z,5.47
2018-09-06T12:21:40.097Z,5.90
2018-09-06T12:24:09.790Z,6.15
2018-09-06T12:26:39.456Z,6.15
2018-09-06T12:29:09.192Z,6.25
2018-09-06T12:31:38.824Z,6.10
2018-09-06T12:34:08.613Z,6.67
2018-09-06T12:36:38.265Z,5.90
2018-09-06T12:39:09.273Z,6.45
2018-09-06T12:41:39.575Z,5.53
2018-09-06T12:44:09.603Z,6.75
2018-09-06T12:46:39.288Z,6.17
2018-09-06T12:49:08.988Z,5.92
2018-09-06T12:51:38.720Z,6.22
2018-09-06T12:54:08.474Z,6.00
2018-09-06T12:56:38.292Z,5.90
2018-09-06T12:59:08.003Z,6.58
2018-09-06T13:01:37.656Z,6.10
2018-09-06T13:04:07.444Z,5.90
2018-09-06T13:06:37.093Z,6.42
2018-09-06T13:09:07.420Z,6.50
2018-09-06T13:11:37.544Z,6.35
2018-09-06T13:14:07.256Z,5.83
2018-09-06T13:16:36.913Z,6.50
2018-09-06T13:19:06.636Z,6.42
2018-09-06T13:21:36.388Z,5.90
2018-09-06T13:24:06.080Z,6.05
2018-09-06T13:26:35.761Z,6.58
2018-09-06T13:29:05.536Z,6.25
2018-09-06T13:31:35.276Z,6.33
2018-09-06T13:34:05.028Z,6.33
2018-09-06T13:36:34.676Z,6.45
2018-09-06T13:39:06.267Z,6.22
2018-09-06T13:41:35.963Z,6.47
2018-09-06T13:44:05.677Z,6.83
2018-09-06T13:46:35.452Z,6.20
2018-09-06T13:49:05.136Z,5.87
2018-09-06T13:51:34.800Z,6.30
2018-09-06T13:54:04.495Z,6.28
2018-09-06T13:56:34.136Z,6.15
2018-09-06T13:59:03.888Z,6.37
2018-09-06T14:01:33.844Z,6.37
2018-09-06T14:04:03.587Z,7.33
2018-09-06T14:06:33.313Z,6.60
2018-09-06T14:09:03.048Z,6.70
2018-09-06T14:11:32.672Z,6.78
2018-09-06T14:14:02.372Z,7.12
2018-09-06T14:16:32.111Z,7.42
2018-09-06T14:19:01.803Z,6.65
2018-09-06T14:21:31.449Z,6.78
2018-09-06T14:24:01.145Z,6.92
2018-09-06T14:26:30.845Z,6.65
2018-09-06T14:29:00.528Z,7.87
2018-09-06T14:31:30.256Z,7.42
2018-09-06T14:33:59.916Z,7.58
2018-09-06T14:36:29.586Z,6.97
2018-09-06T14:38:59.596Z,7.53
2018-09-06T14:41:29.365Z,7.50
2018-09-06T14:43:59.056Z,7.80
2018-09-06T14:46:28.892Z,7.95
2018-09-06T14:48:58.561Z,7.67
2018-09-06T14:51:28.204Z,7.87
2018-09-06T14:53:57.859Z,8.05
2018-09-06T14:56:27.594Z,7.55
2018-09-06T14:58:57.282Z,7.62
2018-09-06T15:01:27.003Z,8.43
2018-09-06T15:03:56.677Z,8.55
2018-09-06T15:06:26.333Z,8.80
2018-09-06T15:08:56.016Z,8.48
2018-09-06T15:11:25.667Z,9.18
2018-09-06T15:13:55.369Z,9.05
2018-09-06T15:16:25.042Z,9.28
2018-09-06T15:18:54.720Z,8.88
2018-09-06T15:21:24.437Z,10.20
2018-09-06T15:23:54.103Z,9.63
2018-09-06T15:26:23.785Z,10.85
2018-09-06T15:28:53.507Z,10.75
2018-09-06T15:31:23.173Z,10.40
2018-09-06T15:33:52.868Z,11.05
2018-09-06T15:36:22.531Z,9.90
2018-09-06T15:38:52.366Z,10.18
2018-09-06T15:41:22.140Z,11.18
2018-09-06T15:43:51.888Z,11.33
2018-09-06T15:46:21.668Z,10.80
2018-09-06T15:48:51.388Z,11.10
2018-09-06T15:51:21.350Z,11.80
2018-09-06T15:53:51.028Z,11.10
2018-09-06T15:56:20.696Z,10.85
2018-09-06T15:58:50.377Z,11.70
2018-09-06T16:01:20.025Z,10.85
2018-09-06T16:03:49.727Z,11.78
2018-09-06T16:06:19.473Z,11.35
2018-09-06T16:08:49.156Z,12.58
2018-09-06T16:11:18.904Z,13.25
2018-09-06T16:13:48.628Z,11.60
2018-09-06T16:16:18.483Z,12.95
2018-09-06T16:18:48.252Z,13.70
2018-09-06T16:21:17.905Z,14.68
2018-09-06T16:23:47.600Z,14.80
2018-09-06T16:26:17.328Z,14.25
2018-09-06T16:28:47.008Z,13.95
2018-09-06T16:31:16.685Z,13.43
2018-09-06T16:33:46.394Z,13.85
2018-09-06T16:36:16.052Z,13.70
2018-09-06T16:38:45.772Z,13.05
2018-09-06T16:41:15.449Z,12.35
2018-09-06T16:43:45.474Z,12.30
2018-09-06T16:46:15.134Z,13.20
2018-09-06T16:48:44.897Z,12.73
2018-09-06T16:51:14.716Z,12.40
2018-09-06T16:53:44.385Z,13.72
2018-09-06T16:56:14.072Z,12.25
2018-09-06T16:58:43.736Z,12.93
2018-09-06T17:01:13.534Z,12.37
2018-09-06T17:03:43.175Z,12.47
2018-09-06T17:06:12.871Z,12.83
2018-09-06T17:08:42.537Z,12.95
2018-09-06T17:11:12.232Z,13.62
2018-09-06T17:13:41.909Z,13.98
2018-09-06T17:16:11.665Z,14.78
2018-09-06T17:18:41.381Z,11.28
2018-09-06T17:21:11.112Z,9.57
2018-09-06T17:23:41.209Z,8.77
2018-09-06T17:26:11.157Z,8.97
2018-09-06T17:28:40.857Z,8.80
2018-09-06T17:31:10.584Z,6.80
2018-09-06T17:33:40.272Z,7.73
2018-09-06T17:36:09.993Z,6.93
2018-09-06T17:38:39.753Z,6.27
2018-09-06T17:41:09.452Z,6.10
2018-09-06T17:43:39.140Z,5.77
2018-09-06T17:46:08.848Z,6.00
2018-09-06T17:48:38.729Z,6.03
2018-09-06T17:51:08.481Z,6.00
2018-09-06T17:53:38.172Z,6.70
2018-09-06T17:56:07.910Z,4.90
2018-09-06T17:58:37.596Z,5.37
2018-09-06T18:01:20.402Z,5.33
2018-09-06T18:03:50.186Z,4.47
2018-09-06T18:06:19.949Z,4.53
2018-09-06T18:08:49.712Z,4.93
2018-09-06T18:11:19.436Z,4.93
2018-09-06T18:13:49.245Z,5.70
2018-09-06T18:16:18.992Z,6.80
2018-09-06T18:18:48.764Z,8.70
2018-09-06T18:21:18.511Z,9.73
2018-09-06T18:23:48.262Z,10.20
2018-09-06T18:26:18.097Z,12.13
2018-09-06T18:28:47.823Z,14.47
2018-09-06T18:31:17.628Z,13.80
2018-09-06T18:33:47.357Z,14.47
2018-09-06T18:36:17.153Z,13.50
2018-09-06T18:38:47.787Z,12.00
2018-09-06T18:41:17.616Z,11.13
2018-09-06T18:43:47.343Z,12.60
2018-09-06T18:46:17.056Z,14.57
2018-09-06T18:48:46.776Z,15.77
2018-09-06T18:51:16.547Z,15.97
2018-09-06T18:53:46.294Z,17.40
2018-09-06T18:56:16.039Z,16.43
2018-09-06T18:58:45.772Z,16.80
2018-09-06T19:01:15.503Z,17.60
2018-09-06T19:03:45.207Z,16.90
2018-09-06T19:06:14.920Z,14.50
2018-09-06T19:08:44.616Z,16.07
2018-09-06T19:11:14.418Z,18.27
2018-09-06T19:13:44.115Z,18.43
2018-09-06T19:16:13.824Z,20.40
2018-09-06T19:18:43.560Z,20.63
2018-09-06T19:21:13.252Z,22.20
2018-09-06T19:23:42.928Z,24.80
2018-09-06T19:26:12.674Z,25.60
2018-09-06T19:28:42.380Z,27.73
2018-09-06T19:31:12.101Z,28.57
2018-09-06T19:33:41.797Z,27.13
2018-09-06T19:36:11.530Z,25.43
2018-09-06T19:38:41.239Z,23.50
2018-09-06T19:41:10.974Z,20.73
2018-09-06T19:43:40.693Z,24.43
2018-09-06T19:46:10.406Z,22.53
2018-09-06T19:48:40.218Z,23.43
2018-09-06T19:51:10.018Z,25.07
2018-09-06T19:53:39.809Z,28.47
2018-09-06T19:56:09.530Z,27.63
2018-09-06T19:58:39.224Z,23.53
2018-09-06T20:01:08.956Z,20.30
2018-09-06T20:03:38.650Z,19.40
2018-09-06T20:06:08.372Z,17.53
2018-09-06T20:08:38.073Z,16.77
2018-09-06T20:11:07.804Z,17.40
2018-09-06T20:13:37.548Z,17.00
2018-09-06T20:16:07.484Z,16.80
2018-09-06T20:18:37.184Z,16.87
2018-09-06T20:21:06.926Z,15.57
2018-09-06T20:23:36.621Z,15.97
2018-09-06T20:26:06.416Z,17.13
2018-09-06T20:28:36.254Z,17.40
2018-09-06T20:31:06.138Z,17.87
2018-09-06T20:33:35.864Z,16.73
2018-09-06T20:36:05.633Z,17.57
2018-09-06T20:38:35.354Z,17.40
2018-09-06T20:41:05.143Z,18.20
2018-09-06T20:43:34.961Z,17.03
2018-09-06T20:46:04.704Z,17.50
2018-09-06T20:48:34.485Z,19.07
2018-09-06T20:51:04.317Z,18.03
2018-09-06T20:53:34.356Z,17.13
2018-09-06T20:56:04.100Z,17.87
2018-09-06T20:58:33.797Z,20.17
2018-09-06T21:01:03.570Z,19.47
2018-09-06T21:03:33.266Z,18.83
2018-09-06T21:06:03.072Z,19.63
2018-09-06T21:08:32.804Z,17.70
2018-09-06T21:11:02.540Z,17.93
2018-09-06T21:13:32.220Z,16.87
2018-09-06T21:16:01.955Z,18.17
2018-09-06T21:18:31.946Z,21.83
2018-09-06T21:21:01.682Z,19.00
2018-09-06T21:23:31.393Z,19.97
2018-09-06T21:26:01.127Z,19.17
2018-09-06T21:28:30.898Z,20.90
2018-09-06T21:31:00.696Z,20.20
2018-09-06T21:33:30.388Z,21.60
2018-09-06T21:36:00.074Z,19.13
2018-09-06T21:38:29.773Z,19.27
2018-09-06T21:40:59.514Z,20.37
2018-09-06T21:43:29.308Z,22.30
2018-09-06T21:45:59.028Z,21.90
2018-09-06T21:48:28.744Z,23.70
2018-09-06T21:50:58.457Z,21.90
2018-09-06T21:53:28.144Z,22.57
2018-09-06T21:55:57.856Z,21.90
2018-09-06T21:58:27.640Z,25.97
2018-09-06T22:00:57.396Z,23.83
2018-09-06T22:03:32.298Z,26.37
2018-09-06T22:06:02.075Z,26.03
2018-09-06T22:08:31.806Z,26.03
2018-09-06T22:11:01.558Z,26.37
2018-09-06T22:13:31.283Z,26.40
2018-09-06T22:16:01.069Z,24.77
2018-09-06T22:18:30.805Z,28.23
2018-09-06T22:21:00.557Z,28.40
2018-09-06T22:23:30.252Z,26.17
2018-09-06T22:25:59.986Z,24.30
2018-09-06T22:28:29.653Z,25.13
2018-09-06T22:30:59.381Z,24.57
2018-09-06T22:33:29.079Z,25.60
2018-09-06T22:35:58.818Z,28.07
2018-09-06T22:38:28.476Z,28.90
2018-09-06T22:40:58.199Z,29.20
2018-09-06T22:43:27.913Z,25.33
2018-09-06T22:45:57.740Z,24.80
2018-09-06T22:48:27.436Z,22.60
2018-09-06T22:50:57.131Z,24.80
2018-09-06T22:53:26.828Z,27.27
2018-09-06T22:55:56.548Z,27.63
2018-09-06T22:58:26.332Z,25.97
2018-09-06T23:00:56.122Z,25.23
2018-09-06T23:03:30.794Z,24.70
2018-09-06T23:06:00.500Z,29.77
2018-09-06T23:08:30.216Z,29.90
2018-09-06T23:10:59.995Z,29.13
2018-09-06T23:13:29.759Z,30.37
2018-09-06T23:15:59.592Z,23.17
2018-09-06T23:18:29.317Z,28.60
2018-09-06T23:20:59.129Z,24.57
2018-09-06T23:23:28.914Z,22.90
2018-09-06T23:25:58.705Z,25.63
2018-09-06T23:28:28.435Z,25.17
2018-09-06T23:30:58.150Z,25.27
2018-09-06T23:33:27.906Z,28.20
2018-09-06T23:35:57.649Z,28.47
2018-09-06T23:38:27.450Z,28.70
2018-09-06T23:40:57.873Z,28.20
2018-09-06T23:43:28.096Z,28.60
2018-09-06T23:45:58.866Z,27.93
2018-09-06T23:48:29.774Z,28.97
2018-09-06T23:50:59.797Z,24.93
2018-09-06T23:53:29.697Z,24.40
2018-09-06T23:55:59.447Z,24.90
2018-09-06T23:58:29.138Z,25.13
